メインページ
METAR-TAF:

METAR-TAF

空港 :

ドンムアン空港

バンコク, タイ

緯度: 13-54-45N, 経度: 100-36-24E, 海抜: 4m

現時点の気象観測

当レポートは44分前の12:00(UTC)に作成
東/南東の風 4kt
気温 26°C
湿度 94%
気圧 1010 hPa
視程10km以上
高度2000ftの雲はほとんどない
高度10000ftの千切れ雲あり
小雨

METAR: VTBD 211200Z 12004KT 9999 -RA FEW020 BKN100 26/25 Q1010 NOSIG

時間: 19:44 (12:44 UTC)

予報

当レポートは1時間44分前の11:00(UTC)に作成
予報は21日の 12時(UTC)から 22日の 18時(UTC)まで有効
南/南東の風 5kt
視程10km以上
高度2000ftの雲はほとんどない
高度10000ftの千切れ雲あり
21日の 16時(UTC)から 21日の 18時(UTC)まで徐々に
の風 5kt
高度2000ftの雲はほとんどない
22日の 04時(UTC)から 22日の 06時(UTC)まで徐々に
南/南東の風 10kt
22日の 10時(UTC)から 22日の 14時(UTC)まで一時的に
変向風 15kt
視程: 5000m
高度1800ftの雲はほとんどない, 積乱雲.
高度3000ftの雲は散在している
高度10000ftの千切れ雲あり
激しい雷雨, 雨

TAF: VTBD 211100Z 2112/2218 16005KT 9999 FEW020 BKN100 BECMG 2116/2118 10005KT FEW020 BECMG 2204/2206 16010KT TEMPO 2210/2214 VRB15KT 5000 TSRA FEW018CB SCT030 BKN100

4,000以上の空港の気象観測と天気予報(METAR報とTAF報)

利用可能な観測所は地図上に黄色い丸と赤い丸で示す。

丸の上にカーソルを重ねると観測所名を参照できる。

次にクリックすると気象観測と天気予報を参照できる。

マップの切り替え:黒色「×」印の緑ボタンをクリックして拡大、「-」印の緑ボタンをクリックして縮小、緑色の三角印をクリックして隣りの地図に切り替え


METAR-TAF: